createdAt,value
2023-06-04T00:00:00.567Z,100419.50
2023-06-04T00:03:03.362Z,100427.47
2023-06-04T00:06:06.044Z,100416.69
2023-06-04T00:09:08.689Z,100417.31
2023-06-04T00:12:11.364Z,100404.97
2023-06-04T00:15:16.450Z,100412.13
2023-06-04T00:18:19.075Z,100419.66
2023-06-04T00:21:22.757Z,100423.44
2023-06-04T00:24:25.400Z,100422.16
2023-06-04T00:27:28.022Z,100412.41
2023-06-04T00:30:30.733Z,100405.13
2023-06-04T00:33:33.857Z,100428.09
2023-06-04T00:36:36.521Z,100409.75
2023-06-04T00:39:39.120Z,100418.22
2023-06-04T00:42:41.768Z,100422.69
2023-06-04T00:45:44.631Z,100425.13
2023-06-04T00:48:47.350Z,100432.47
2023-06-04T00:51:50.273Z,100423.66
2023-06-04T00:54:53.465Z,100416.53
2023-06-04T00:57:56.183Z,100421.63
2023-06-04T01:01:00.985Z,100418.47
2023-06-04T01:04:06.162Z,100418.47
2023-06-04T01:07:10.249Z,100423.47
2023-06-04T01:10:13.187Z,100419.75
2023-06-04T01:13:15.977Z,100422.06
2023-06-04T01:16:18.667Z,100416.19
2023-06-04T01:19:52.501Z,100423.72
2023-06-04T01:23:03.607Z,100422.13
2023-06-04T01:26:06.610Z,100407.84
2023-06-04T01:29:09.344Z,100420.56
2023-06-04T01:32:12.156Z,100403.69
2023-06-04T01:35:14.872Z,100417.72
2023-06-04T01:38:17.672Z,100421.63
2023-06-04T01:41:20.561Z,100418.28
2023-06-04T01:44:23.591Z,100418.13
2023-06-04T01:47:26.597Z,100423.47
2023-06-04T01:50:29.265Z,100421.88
2023-06-04T01:53:32.359Z,100417.34
2023-06-04T01:56:34.999Z,100406.00
2023-06-04T01:59:40.355Z,100407.22
2023-06-04T02:02:46.944Z,100434.84
2023-06-04T02:05:51.151Z,100415.06
2023-06-04T02:08:55.351Z,100431.03
2023-06-04T02:11:58.283Z,100433.97
2023-06-04T02:15:01.257Z,100443.78
2023-06-04T02:18:19.018Z,100433.81
2023-06-04T02:21:21.927Z,100445.34
2023-06-04T02:24:24.577Z,100425.91
2023-06-04T02:27:27.139Z,100437.75
2023-06-04T02:30:29.869Z,100441.84
2023-06-04T02:33:32.581Z,100418.31
2023-06-04T02:36:35.630Z,100425.53
2023-06-04T02:39:38.213Z,100412.81
2023-06-04T02:42:41.370Z,100427.41
2023-06-04T02:45:44.073Z,100429.34
2023-06-04T02:48:47.084Z,100418.66
2023-06-04T02:51:49.617Z,100434.78
2023-06-04T02:54:52.964Z,100440.34
2023-06-04T02:57:55.545Z,100445.09
2023-06-04T03:00:58.260Z,100440.72
2023-06-04T03:04:04.940Z,100447.88
2023-06-04T03:07:09.281Z,100436.84
2023-06-04T03:10:13.208Z,100446.56
2023-06-04T03:13:16.419Z,100434.47
2023-06-04T03:16:19.176Z,100430.81
2023-06-04T03:19:21.902Z,100440.56
2023-06-04T03:22:24.852Z,100437.47
2023-06-04T03:25:27.605Z,100450.75
2023-06-04T03:28:31.884Z,100446.53
2023-06-04T03:31:36.158Z,100451.41
2023-06-04T03:34:38.941Z,100459.69
2023-06-04T03:37:41.564Z,100463.09
2023-06-04T03:40:45.228Z,100458.78
2023-06-04T03:43:48.064Z,100464.47
2023-06-04T03:46:50.916Z,100471.22
2023-06-04T03:49:54.840Z,100472.34
2023-06-04T03:52:57.880Z,100468.53
2023-06-04T03:56:01.224Z,100470.56
2023-06-04T03:59:05.348Z,100480.88
2023-06-04T04:02:08.709Z,100480.16
2023-06-04T04:05:13.275Z,100479.78
2023-06-04T04:08:17.906Z,100490.06
2023-06-04T04:11:21.823Z,100491.06
2023-06-04T04:14:24.639Z,100487.38
2023-06-04T04:17:27.617Z,100484.19
2023-06-04T04:20:30.854Z,100477.47
2023-06-04T04:23:43.358Z,100485.66
2023-06-04T04:26:47.633Z,100489.91
2023-06-04T04:29:50.504Z,100495.19
2023-06-04T04:32:53.214Z,100463.03
2023-06-04T04:36:15.247Z,100486.06
2023-06-04T04:39:26.930Z,100499.78
2023-06-04T04:42:32.579Z,100492.22
2023-06-04T04:45:36.860Z,100498.25
2023-06-04T04:48:43.560Z,100500.69
2023-06-04T04:51:46.334Z,100501.09
2023-06-04T04:54:49.219Z,100502.41
2023-06-04T04:57:52.272Z,100493.63
2023-06-04T05:00:56.179Z,100500.16
2023-06-04T05:03:59.520Z,100500.34
2023-06-04T05:07:03.477Z,100507.56
2023-06-04T05:10:06.655Z,100502.06
2023-06-04T05:13:12.353Z,100506.03
2023-06-04T05:16:23.926Z,100504.22
2023-06-04T05:19:26.972Z,100508.84
2023-06-04T05:22:30.223Z,100518.84
2023-06-04T05:25:33.143Z,100516.56
2023-06-04T05:28:39.875Z,100524.59
2023-06-04T05:31:43.074Z,100527.84
2023-06-04T05:34:48.426Z,100521.91
2023-06-04T05:37:55.247Z,100523.63
2023-06-04T05:41:02.197Z,100529.38
2023-06-04T05:44:09.158Z,100547.16
2023-06-04T05:47:11.912Z,100541.97
2023-06-04T05:50:14.865Z,100547.00
2023-06-04T05:53:17.548Z,100545.13
2023-06-04T05:56:22.941Z,100550.19
2023-06-04T05:59:26.305Z,100541.97
2023-06-04T06:02:29.188Z,100554.13
2023-06-04T06:05:32.051Z,100556.13
2023-06-04T06:08:35.110Z,100551.91
2023-06-04T06:11:38.099Z,100561.50
2023-06-04T06:14:41.193Z,100567.84
2023-06-04T06:17:43.942Z,100579.78
2023-06-04T06:20:47.215Z,100580.09
2023-06-04T06:23:49.972Z,100570.47
2023-06-04T06:26:53.013Z,100577.50
2023-06-04T06:29:55.764Z,100583.75
2023-06-04T06:32:58.767Z,100584.50
2023-06-04T06:36:01.411Z,100584.44
2023-06-04T06:39:04.580Z,100573.66
2023-06-04T06:42:07.320Z,100574.81
2023-06-04T06:45:14.487Z,100582.88
2023-06-04T06:48:17.189Z,100586.50
2023-06-04T06:51:19.944Z,100586.81
2023-06-04T06:54:23.006Z,100596.56
2023-06-04T06:57:25.741Z,100597.69
2023-06-04T07:00:29.322Z,100595.22
2023-06-04T07:03:32.564Z,100602.34
2023-06-04T07:06:37.011Z,100601.31
2023-06-04T07:09:39.640Z,100589.81
2023-06-04T07:12:43.754Z,100596.19
2023-06-04T07:15:46.605Z,100604.09
2023-06-04T07:18:52.401Z,100602.56
2023-06-04T07:21:56.904Z,100589.16
2023-06-04T07:24:59.704Z,100597.28
2023-06-04T07:28:05.070Z,100595.66
2023-06-04T07:31:08.068Z,100577.84
2023-06-04T07:34:10.900Z,100566.53
2023-06-04T07:37:15.091Z,100580.25
2023-06-04T07:40:18.559Z,100557.91
2023-06-04T07:43:21.303Z,100571.66
2023-06-04T07:46:23.927Z,100569.25
2023-06-04T07:49:26.595Z,100581.88
2023-06-04T07:52:29.352Z,100580.44
2023-06-04T07:55:33.105Z,100576.00
2023-06-04T07:58:35.810Z,100588.38
2023-06-04T08:01:38.426Z,100585.13
2023-06-04T08:04:41.361Z,100595.31
2023-06-04T08:07:44.528Z,100590.59
2023-06-04T08:10:47.271Z,100596.13
2023-06-04T08:13:50.326Z,100592.88
2023-06-04T08:16:53.077Z,100600.00
2023-06-04T08:19:57.093Z,100594.63
2023-06-04T08:22:59.742Z,100592.56
2023-06-04T08:26:02.952Z,100602.38
2023-06-04T08:29:05.764Z,100596.34
2023-06-04T08:32:09.129Z,100600.63
2023-06-04T08:35:11.990Z,100589.88
2023-06-04T08:38:14.684Z,100602.69
2023-06-04T08:41:30.769Z,100600.00
2023-06-04T08:44:33.698Z,100593.72
2023-06-04T08:47:36.982Z,100593.59
2023-06-04T08:50:41.685Z,100578.94
2023-06-04T08:53:45.118Z,100595.63
2023-06-04T08:56:50.233Z,100591.84
2023-06-04T08:59:52.926Z,100591.47
2023-06-04T09:02:56.169Z,100598.22
2023-06-04T09:05:59.643Z,100578.34
2023-06-04T09:09:08.582Z,100567.75
2023-06-04T09:12:13.142Z,100584.69
2023-06-04T09:15:16.076Z,100584.41
2023-06-04T09:18:18.653Z,100598.69
2023-06-04T09:21:22.026Z,100598.00
2023-06-04T09:24:26.734Z,100603.09
2023-06-04T09:27:38.316Z,100592.66
2023-06-04T09:30:51.579Z,100586.38
2023-06-04T09:33:54.217Z,100600.69
2023-06-04T09:36:57.761Z,100589.66
2023-06-04T09:40:00.925Z,100594.84
2023-06-04T09:43:03.861Z,100589.28
2023-06-04T09:46:14.182Z,100587.72
2023-06-04T09:49:17.673Z,100593.97
2023-06-04T09:52:22.411Z,100589.81
2023-06-04T09:55:25.170Z,100589.34
2023-06-04T09:58:28.562Z,100584.69
2023-06-04T10:01:31.641Z,100589.66
2023-06-04T10:04:36.158Z,100584.88
2023-06-04T10:07:39.778Z,100571.66
2023-06-04T10:10:42.531Z,100591.72
2023-06-04T10:13:49.507Z,100584.63
2023-06-04T10:16:55.433Z,100581.00
2023-06-04T10:19:59.461Z,100575.00
2023-06-04T10:23:02.485Z,100571.25
2023-06-04T10:26:05.196Z,100580.13
2023-06-04T10:29:07.975Z,100574.72
2023-06-04T10:32:10.721Z,100574.13
2023-06-04T10:35:15.627Z,100567.16
2023-06-04T10:38:20.123Z,100565.56
2023-06-04T10:41:24.518Z,100554.19
2023-06-04T10:44:27.196Z,100556.44
2023-06-04T10:47:35.199Z,100564.16
2023-06-04T10:50:51.181Z,100559.78
2023-06-04T10:53:53.783Z,100566.09
2023-06-04T10:56:57.889Z,100565.06
2023-06-04T11:00:01.748Z,100551.09
2023-06-04T11:03:09.822Z,100555.44
2023-06-04T11:06:19.169Z,100556.41
2023-06-04T11:09:21.867Z,100559.00
2023-06-04T11:12:24.599Z,100550.31
2023-06-04T11:15:27.307Z,100547.31
2023-06-04T11:18:30.095Z,100536.66
2023-06-04T11:21:37.600Z,100544.25
2023-06-04T11:24:40.261Z,100536.16
2023-06-04T11:27:42.919Z,100530.34
2023-06-04T11:30:56.830Z,100534.53
2023-06-04T11:34:02.139Z,100536.19
2023-06-04T11:37:11.294Z,100527.19
2023-06-04T11:40:21.574Z,100527.84
2023-06-04T11:43:24.684Z,100534.41
2023-06-04T11:46:27.393Z,100526.38
2023-06-04T11:49:30.058Z,100527.09
2023-06-04T11:52:34.409Z,100537.28
2023-06-04T11:55:39.122Z,100542.38
2023-06-04T11:58:42.913Z,100538.25
2023-06-04T12:01:47.123Z,100533.09
2023-06-04T12:04:49.763Z,100528.81
2023-06-04T12:07:52.962Z,100522.44
2023-06-04T12:10:55.744Z,100522.63
2023-06-04T12:14:07.857Z,100522.25
2023-06-04T12:17:10.659Z,100517.34
2023-06-04T12:20:13.260Z,100502.91
2023-06-04T12:23:22.696Z,100513.09
2023-06-04T12:26:29.974Z,100514.38
2023-06-04T12:29:32.853Z,100503.91
2023-06-04T12:32:38.691Z,100486.72
2023-06-04T12:35:41.356Z,100501.75
2023-06-04T12:38:44.855Z,100501.16
2023-06-04T12:41:48.732Z,100496.13
2023-06-04T12:44:51.345Z,100497.22
2023-06-04T12:47:54.081Z,100484.19
2023-06-04T12:50:56.756Z,100491.00
2023-06-04T12:53:59.628Z,100495.75
2023-06-04T12:57:04.711Z,100499.72
2023-06-04T13:00:08.600Z,100499.72
2023-06-04T13:03:11.365Z,100478.41
2023-06-04T13:06:14.043Z,100498.06
2023-06-04T13:09:17.454Z,100495.03
2023-06-04T13:12:20.135Z,100484.75
2023-06-04T13:15:23.394Z,100483.59
2023-06-04T13:18:26.119Z,100479.50
2023-06-04T13:21:28.830Z,100480.66
2023-06-04T13:24:31.674Z,100479.88
2023-06-04T13:27:34.447Z,100480.69
2023-06-04T13:30:41.423Z,100473.72
2023-06-04T13:33:44.024Z,100477.88
2023-06-04T13:36:46.669Z,100479.47
2023-06-04T13:39:49.201Z,100475.38
2023-06-04T13:42:51.843Z,100472.59
2023-06-04T13:45:54.474Z,100467.81
2023-06-04T13:48:57.958Z,100467.81
2023-06-04T13:52:00.658Z,100456.41
2023-06-04T13:55:03.415Z,100473.50
2023-06-04T13:58:06.493Z,100467.91
2023-06-04T14:01:09.387Z,100474.06
2023-06-04T14:04:12.763Z,100470.75
2023-06-04T14:07:15.418Z,100467.66
2023-06-04T14:10:18.139Z,100475.78
2023-06-04T14:13:20.962Z,100473.75
2023-06-04T14:16:23.794Z,100477.44
2023-06-04T14:19:26.448Z,100466.97
2023-06-04T14:22:29.058Z,100464.56
2023-06-04T14:25:33.849Z,100442.72
2023-06-04T14:28:36.618Z,100456.75
2023-06-04T14:31:39.286Z,100438.78
2023-06-04T14:34:42.007Z,100446.28
2023-06-04T14:37:44.714Z,100438.09
2023-06-04T14:40:47.399Z,100440.84
2023-06-04T14:43:50.064Z,100433.78
2023-06-04T14:46:52.993Z,100429.03
2023-06-04T14:49:55.662Z,100432.88
2023-06-04T14:52:58.365Z,100432.50
2023-06-04T14:56:01.165Z,100412.63
2023-06-04T14:59:06.644Z,100436.38
2023-06-04T15:02:09.406Z,100429.00
2023-06-04T15:05:12.101Z,100432.28
2023-06-04T15:08:14.820Z,100405.81
2023-06-04T15:11:17.556Z,100420.63
2023-06-04T15:14:20.209Z,100417.38
2023-06-04T15:17:23.056Z,100414.78
2023-06-04T15:20:28.577Z,100407.63
2023-06-04T15:23:31.403Z,100393.81
2023-06-04T15:26:34.109Z,100396.53
2023-06-04T15:29:36.867Z,100390.00
2023-06-04T15:32:39.577Z,100386.53
2023-06-04T15:35:42.238Z,100373.19
2023-06-04T15:38:44.919Z,100382.91
2023-06-04T15:41:47.547Z,100385.16
2023-06-04T15:44:50.241Z,100384.53
2023-06-04T15:47:53.160Z,100378.75
2023-06-04T15:50:55.911Z,100371.88
2023-06-04T15:53:59.357Z,100377.03
2023-06-04T15:57:02.603Z,100368.69
2023-06-04T16:00:05.757Z,100364.50
2023-06-04T16:03:08.300Z,100373.22
2023-06-04T16:06:11.857Z,100381.88
2023-06-04T16:09:14.504Z,100378.44
2023-06-04T16:12:17.236Z,100368.56
2023-06-04T16:15:19.999Z,100374.00
2023-06-04T16:18:23.098Z,100376.38
2023-06-04T16:21:27.136Z,100364.13
2023-06-04T16:24:29.804Z,100370.81
2023-06-04T16:27:33.131Z,100377.91
2023-06-04T16:30:36.192Z,100379.50
2023-06-04T16:33:38.805Z,100381.41
2023-06-04T16:36:43.048Z,100364.03
2023-06-04T16:39:45.734Z,100371.72
2023-06-04T16:42:48.461Z,100370.44
2023-06-04T16:45:51.306Z,100380.59
2023-06-04T16:48:53.943Z,100384.44
2023-06-04T16:51:56.644Z,100385.13
2023-06-04T16:55:00.392Z,100374.59
2023-06-04T16:58:03.120Z,100380.31
2023-06-04T17:01:06.559Z,100380.66
2023-06-04T17:04:09.154Z,100386.75
2023-06-04T17:07:11.971Z,100385.53
2023-06-04T17:10:14.628Z,100398.25
2023-06-04T17:13:17.398Z,100388.16
2023-06-04T17:16:20.134Z,100391.25
2023-06-04T17:19:22.973Z,100392.50
2023-06-04T17:22:26.014Z,100402.31
2023-06-04T17:25:29.881Z,100394.38
2023-06-04T17:28:32.605Z,100403.31
2023-06-04T17:31:35.290Z,100412.00
2023-06-04T17:34:38.255Z,100394.72
2023-06-04T17:37:41.002Z,100402.56
2023-06-04T17:40:43.673Z,100413.50
2023-06-04T17:43:46.538Z,100406.22
2023-06-04T17:46:49.188Z,100408.72
2023-06-04T17:49:51.838Z,100417.22
2023-06-04T17:52:54.518Z,100423.28
2023-06-04T17:56:00.134Z,100425.28
2023-06-04T17:59:06.956Z,100419.97
2023-06-04T18:02:09.725Z,100413.88
2023-06-04T18:05:12.528Z,100413.69
2023-06-04T18:08:15.456Z,100406.19
2023-06-04T18:11:18.719Z,100426.75
2023-06-04T18:14:21.587Z,100419.28
2023-06-04T18:17:24.160Z,100426.88
2023-06-04T18:20:26.898Z,100431.47
2023-06-04T18:23:29.600Z,100434.75
2023-06-04T18:26:32.224Z,100433.94
2023-06-04T18:29:34.841Z,100436.13
2023-06-04T18:32:37.767Z,100443.38
2023-06-04T18:35:40.528Z,100432.91
2023-06-04T18:38:43.179Z,100446.09
2023-06-04T18:41:47.452Z,100448.03
2023-06-04T18:44:50.078Z,100445.84
2023-06-04T18:47:52.739Z,100456.63
2023-06-04T18:50:55.402Z,100443.97
2023-06-04T18:53:58.131Z,100452.63
2023-06-04T18:57:01.094Z,100459.06
2023-06-04T19:00:08.703Z,100463.09
2023-06-04T19:03:11.555Z,100460.16
2023-06-04T19:06:14.308Z,100471.16
2023-06-04T19:09:17.048Z,100464.72
2023-06-04T19:12:19.729Z,100467.91
2023-06-04T19:15:22.606Z,100472.22
2023-06-04T19:18:25.355Z,100472.47
2023-06-04T19:21:28.214Z,100465.19
2023-06-04T19:24:30.898Z,100462.75
2023-06-04T19:27:33.630Z,100482.94
2023-06-04T19:30:36.400Z,100468.91
2023-06-04T19:33:39.182Z,100468.38
2023-06-04T19:36:42.035Z,100478.59
2023-06-04T19:39:44.666Z,100476.97
2023-06-04T19:42:47.328Z,100489.09
2023-06-04T19:45:57.851Z,100480.44
2023-06-04T19:49:00.695Z,100486.94
2023-06-04T19:52:03.669Z,100484.78
2023-06-04T19:55:09.133Z,100494.75
2023-06-04T19:58:12.102Z,100490.44
2023-06-04T20:01:14.872Z,100495.81
2023-06-04T20:04:17.678Z,100501.16
2023-06-04T20:07:21.054Z,100500.66
2023-06-04T20:10:25.536Z,100486.63
2023-06-04T20:13:28.251Z,100493.59
2023-06-04T20:16:31.125Z,100489.53
2023-06-04T20:19:33.753Z,100487.63
2023-06-04T20:22:36.502Z,100493.53
2023-06-04T20:25:39.218Z,100491.09
2023-06-04T20:28:41.886Z,100490.03
2023-06-04T20:31:44.561Z,100487.84
2023-06-04T20:34:47.169Z,100477.38
2023-06-04T20:37:50.182Z,100487.81
2023-06-04T20:40:52.769Z,100482.16
2023-06-04T20:43:56.311Z,100472.72
2023-06-04T20:46:59.006Z,100483.28
2023-06-04T20:50:01.743Z,100484.84
2023-06-04T20:53:04.486Z,100486.63
2023-06-04T20:56:07.358Z,100497.66
2023-06-04T20:59:10.236Z,100485.47
2023-06-04T21:02:15.830Z,100468.53
2023-06-04T21:05:18.617Z,100489.53
2023-06-04T21:08:21.656Z,100484.09
2023-06-04T21:11:24.423Z,100489.69
2023-06-04T21:14:27.014Z,100492.94
2023-06-04T21:17:32.017Z,100502.38
2023-06-04T21:20:35.705Z,100506.69
2023-06-04T21:23:38.526Z,100500.22
2023-06-04T21:26:41.568Z,100491.00
2023-06-04T21:29:44.245Z,100488.34
2023-06-04T21:32:47.000Z,100500.56
2023-06-04T21:35:49.656Z,100506.78
2023-06-04T21:38:52.333Z,100510.50
2023-06-04T21:41:54.996Z,100503.50
2023-06-04T21:44:57.671Z,100509.44
2023-06-04T21:48:03.674Z,100501.34
2023-06-04T21:51:07.623Z,100515.06
2023-06-04T21:54:11.108Z,100497.25
2023-06-04T21:57:13.810Z,100508.28
2023-06-04T22:00:17.110Z,100506.09
2023-06-04T22:03:19.824Z,100491.00
2023-06-04T22:06:22.930Z,100511.81
2023-06-04T22:09:25.631Z,100498.00
2023-06-04T22:12:28.686Z,100505.03
2023-06-04T22:15:31.487Z,100502.88
2023-06-04T22:18:48.120Z,100498.75
2023-06-04T22:21:55.259Z,100513.59
2023-06-04T22:24:57.820Z,100508.69
2023-06-04T22:28:00.560Z,100513.75
2023-06-04T22:31:03.222Z,100515.31
2023-06-04T22:34:06.288Z,100516.84
2023-06-04T22:37:08.965Z,100506.56
2023-06-04T22:40:14.424Z,100504.13
2023-06-04T22:43:17.136Z,100504.13
2023-06-04T22:46:19.835Z,100510.06
2023-06-04T22:49:22.638Z,100500.91
2023-06-04T22:52:27.043Z,100489.34
2023-06-04T22:55:29.803Z,100492.31
2023-06-04T22:58:32.491Z,100502.63
2023-06-04T23:01:35.233Z,100507.38
2023-06-04T23:04:37.959Z,100500.13
2023-06-04T23:07:42.183Z,100498.66
2023-06-04T23:10:45.446Z,100502.69
2023-06-04T23:13:48.012Z,100499.94
2023-06-04T23:16:50.858Z,100513.66
2023-06-04T23:19:53.658Z,100520.91
2023-06-04T23:22:56.440Z,100503.09
2023-06-04T23:25:59.203Z,100516.56
2023-06-04T23:29:02.848Z,100513.72
2023-06-04T23:32:05.894Z,100516.97
2023-06-04T23:35:09.059Z,100517.41
2023-06-04T23:38:12.096Z,100516.81
2023-06-04T23:41:14.803Z,100517.34
2023-06-04T23:44:18.371Z,100516.09
2023-06-04T23:47:21.181Z,100530.81
2023-06-04T23:50:23.838Z,100525.41
2023-06-04T23:53:27.082Z,100522.72
2023-06-04T23:56:29.799Z,100518.44
2023-06-04T23:59:32.526Z,100517.34
